createdAt,value
2023-01-19T06:55:50.400Z,39.83
2023-01-19T06:56:54.176Z,68.17
2023-01-19T06:57:56.994Z,85.83
2023-01-19T06:59:00.702Z,94.50
2023-01-19T07:00:07.892Z,97.50
2023-01-19T07:01:10.814Z,99.33
2023-01-19T07:02:26.998Z,100.00
2023-01-19T07:03:32.056Z,103.00
2023-01-19T07:04:34.570Z,104.17
2023-01-19T07:05:38.000Z,98.33
2023-01-19T07:06:41.658Z,100.33
2023-01-19T07:09:55.963Z,69.00
2023-01-19T07:11:25.493Z,101.00
2023-01-19T07:12:27.241Z,102.33
2023-01-19T07:13:31.080Z,102.67
2023-01-19T07:14:36.198Z,101.33
2023-01-19T07:15:40.154Z,101.50
2023-01-19T07:16:45.137Z,101.17
2023-01-19T07:17:50.197Z,101.17
2023-01-19T07:18:55.357Z,102.17
2023-01-19T07:19:59.249Z,101.33
2023-01-19T07:21:04.045Z,101.17
2023-01-19T07:22:08.839Z,100.33
2023-01-19T07:23:12.608Z,101.33
2023-01-19T07:29:44.883Z,58.33
2023-01-19T07:30:51.853Z,97.83
2023-01-19T07:34:03.302Z,63.83
2023-01-19T07:36:21.773Z,68.50
2023-01-19T07:37:24.331Z,103.00
2023-01-19T07:38:27.763Z,103.17
2023-01-19T07:39:30.812Z,102.67
2023-01-19T07:40:34.561Z,101.50
2023-01-19T07:41:37.274Z,101.67
2023-01-19T07:42:47.312Z,101.50
2023-01-19T07:43:52.855Z,101.67
2023-01-19T07:44:55.355Z,101.17
2023-01-19T07:45:59.843Z,100.50
2023-01-19T07:47:02.533Z,101.17
2023-01-19T07:48:07.873Z,105.33
2023-01-19T07:49:11.738Z,111.83
2023-01-19T07:50:16.028Z,106.50
2023-01-19T07:51:20.903Z,101.50
2023-01-19T07:52:24.389Z,100.00
2023-01-19T07:53:26.972Z,99.50
2023-01-19T07:54:30.485Z,103.67
2023-01-19T07:55:34.015Z,101.83
2023-01-19T07:56:36.555Z,101.00
2023-01-19T07:57:40.044Z,101.83
2023-01-19T07:58:43.900Z,101.33
2023-01-19T07:59:46.331Z,102.67
2023-01-19T08:00:50.511Z,104.83
2023-01-19T08:01:54.222Z,103.83
2023-01-19T08:03:01.154Z,103.00
2023-01-19T08:04:04.879Z,102.67
2023-01-19T08:05:08.541Z,102.00
2023-01-19T08:06:18.880Z,102.00
2023-01-19T08:07:23.678Z,102.50
2023-01-19T08:08:27.132Z,103.00
2023-01-19T08:09:29.636Z,102.00
2023-01-19T08:10:34.174Z,101.83
2023-01-19T08:11:36.763Z,101.00
2023-01-19T08:12:42.029Z,101.00
2023-01-19T08:13:45.515Z,102.67
2023-01-19T08:14:49.051Z,102.33
2023-01-19T08:15:51.714Z,101.50
2023-01-19T08:16:55.407Z,101.00
2023-01-19T08:17:58.905Z,101.00
2023-01-19T08:19:02.410Z,101.00
2023-01-19T08:20:06.652Z,101.00
2023-01-19T08:21:10.204Z,101.00
2023-01-19T08:22:12.719Z,101.00
2023-01-19T08:23:18.269Z,101.17
2023-01-19T08:24:22.840Z,101.00
2023-01-19T08:25:27.312Z,102.67
2023-01-19T08:26:32.467Z,102.33
2023-01-19T08:27:35.976Z,102.00
2023-01-19T08:28:38.584Z,102.00
2023-01-19T08:29:42.106Z,102.17
2023-01-19T08:30:45.114Z,102.67
2023-01-19T08:31:48.855Z,101.33
2023-01-19T08:32:52.691Z,100.83
2023-01-19T08:33:55.238Z,99.33
2023-01-19T08:34:58.864Z,97.67
2023-01-19T08:36:01.380Z,96.00
2023-01-19T08:37:04.969Z,94.00
2023-01-19T08:38:09.355Z,93.83
2023-01-19T08:39:14.557Z,93.00
2023-01-19T08:40:18.318Z,92.67
2023-01-19T08:41:22.416Z,89.67
2023-01-19T08:42:24.872Z,88.00
2023-01-19T08:43:28.501Z,88.00
2023-01-19T08:44:32.035Z,88.00
2023-01-19T08:45:34.908Z,87.83
2023-01-19T08:46:38.352Z,87.50
2023-01-19T08:47:41.860Z,87.83
2023-01-19T08:48:48.089Z,87.00
2023-01-19T08:49:51.519Z,87.00
2023-01-19T08:50:54.050Z,86.00
2023-01-19T08:51:57.443Z,86.00
2023-01-19T08:53:02.190Z,86.00
2023-01-19T08:54:05.985Z,86.00
2023-01-19T08:55:11.410Z,85.33
2023-01-19T08:56:20.930Z,86.00
2023-01-19T08:57:23.948Z,86.00
2023-01-19T08:58:27.964Z,87.33
2023-01-19T08:59:30.783Z,88.83
2023-01-19T09:00:41.178Z,90.67
2023-01-19T09:01:45.135Z,94.83
2023-01-19T09:02:48.124Z,101.83
2023-01-19T09:03:52.071Z,103.00
2023-01-19T09:04:55.760Z,103.33
2023-01-19T09:05:58.333Z,105.17
2023-01-19T09:07:01.967Z,107.67
2023-01-19T09:08:05.454Z,110.83
2023-01-19T09:09:08.902Z,113.00
2023-01-19T09:10:12.896Z,113.00
2023-01-19T09:11:17.254Z,115.33
2023-01-19T09:12:20.039Z,117.50
2023-01-19T09:13:23.895Z,119.33
2023-01-19T09:14:26.335Z,123.67
2023-01-19T09:15:29.884Z,123.17
2023-01-19T09:16:33.435Z,122.33
2023-01-19T09:17:35.892Z,124.83
2023-01-19T09:18:39.384Z,127.67
2023-01-19T09:19:42.878Z,133.00
2023-01-19T09:20:47.215Z,131.83
2023-01-19T09:21:50.868Z,131.83
2023-01-19T09:22:55.347Z,134.33
2023-01-19T09:23:58.852Z,134.17
2023-01-19T09:25:01.394Z,133.17
2023-01-19T09:26:07.473Z,132.17
2023-01-19T09:27:09.958Z,132.00
2023-01-19T09:28:14.682Z,131.67
2023-01-19T09:29:18.353Z,132.83
2023-01-19T09:30:20.856Z,142.17
2023-01-19T09:31:24.583Z,158.67
2023-01-19T09:32:27.163Z,158.50
2023-01-19T09:33:30.627Z,150.67
2023-01-19T09:34:33.096Z,148.33
2023-01-19T09:35:36.963Z,147.00
2023-01-19T09:36:40.374Z,145.67
2023-01-19T09:37:45.783Z,144.33
2023-01-19T09:38:49.194Z,142.67
2023-01-19T09:39:51.720Z,140.67
2023-01-19T09:40:57.208Z,138.83
2023-01-19T09:42:07.921Z,136.83
2023-01-19T09:43:17.179Z,134.50
2023-01-19T09:44:24.701Z,137.00
2023-01-19T09:45:32.605Z,159.67
2023-01-19T09:46:39.788Z,167.83
2023-01-19T09:47:42.543Z,166.33
2023-01-19T09:48:48.069Z,164.50
2023-01-19T09:49:55.428Z,165.00
2023-01-19T09:50:59.837Z,165.50
2023-01-19T09:52:04.320Z,166.83
2023-01-19T09:53:15.106Z,180.33
2023-01-19T09:54:20.718Z,193.67
2023-01-19T09:55:33.306Z,198.50
2023-01-19T09:56:37.854Z,196.17
2023-01-19T09:57:42.891Z,200.17
2023-01-19T09:58:46.146Z,204.83
2023-01-19T09:59:51.402Z,212.00
2023-01-19T10:01:00.670Z,217.50
2023-01-19T10:02:08.866Z,204.67
2023-01-19T10:03:16.542Z,203.00
2023-01-19T10:04:27.042Z,211.00
2023-01-19T10:05:33.087Z,216.33
2023-01-19T10:06:36.866Z,214.67
2023-01-19T10:07:53.326Z,214.67
2023-01-19T10:09:07.326Z,214.00
2023-01-19T10:10:18.675Z,212.67
2023-01-19T10:11:51.566Z,211.17
2023-01-19T10:13:06.183Z,210.00
2023-01-19T10:14:18.118Z,209.67
2023-01-19T10:15:29.619Z,209.00
2023-01-19T10:16:40.011Z,208.33
2023-01-19T10:17:52.128Z,207.50
2023-01-19T10:18:59.951Z,206.33
2023-01-19T10:20:03.459Z,205.17
2023-01-19T10:21:12.098Z,204.17
2023-01-19T10:22:20.374Z,203.17
2023-01-19T10:23:35.794Z,203.50
2023-01-19T10:24:41.785Z,206.67
2023-01-19T10:25:48.049Z,211.17
2023-01-19T10:26:52.851Z,215.50
2023-01-19T10:27:56.738Z,218.50
2023-01-19T10:29:03.358Z,217.67
2023-01-19T10:30:08.560Z,216.33
2023-01-19T10:31:12.494Z,215.67
2023-01-19T10:32:19.756Z,215.00
2023-01-19T10:33:22.434Z,215.00
2023-01-19T10:34:26.456Z,217.33
2023-01-19T10:35:29.640Z,218.00
2023-01-19T10:36:39.438Z,217.67
2023-01-19T10:37:42.034Z,217.00
2023-01-19T10:38:45.660Z,217.00
2023-01-19T10:39:55.746Z,217.00
2023-01-19T10:41:04.772Z,217.00
2023-01-19T10:42:13.925Z,216.83
2023-01-19T10:43:39.023Z,215.33
2023-01-19T10:44:45.249Z,210.67
2023-01-19T10:45:51.676Z,209.00
2023-01-19T10:46:55.617Z,209.00
2023-01-19T10:48:01.584Z,211.50
2023-01-19T10:49:09.400Z,221.33
2023-01-19T10:50:24.870Z,230.83
2023-01-19T10:51:28.782Z,229.17
2023-01-19T10:52:34.547Z,229.33
2023-01-19T10:53:38.623Z,228.50
2023-01-19T10:54:44.894Z,227.17
2023-01-19T10:55:47.524Z,226.17
2023-01-19T10:56:55.455Z,225.50
2023-01-19T10:57:58.595Z,224.83
2023-01-19T10:59:03.286Z,223.67
2023-01-19T11:00:28.891Z,222.50
2023-01-19T11:01:36.921Z,220.83
2023-01-19T11:02:50.587Z,218.17
2023-01-19T11:03:54.103Z,215.83
2023-01-19T11:04:59.183Z,212.67
2023-01-19T11:06:19.043Z,209.33
2023-01-19T11:07:23.516Z,207.17
2023-01-19T11:08:29.026Z,203.67
2023-01-19T11:09:32.452Z,197.33
2023-01-19T11:10:36.110Z,193.83
2023-01-19T11:11:42.569Z,195.17
2023-01-19T11:12:57.441Z,192.33
2023-01-19T11:14:05.991Z,186.67
2023-01-19T11:15:16.872Z,186.17
2023-01-19T11:16:26.846Z,183.33
2023-01-19T11:17:30.410Z,179.17
2023-01-19T11:18:35.712Z,177.50
2023-01-19T11:19:39.177Z,178.33
2023-01-19T11:20:51.367Z,174.33
2023-01-19T11:22:09.059Z,175.83
2023-01-19T11:23:27.109Z,172.67
2023-01-19T11:24:33.143Z,161.83
2023-01-19T11:25:37.852Z,159.17
2023-01-19T11:26:43.592Z,161.83
2023-01-19T11:27:51.128Z,158.00
2023-01-19T11:28:56.147Z,158.00
2023-01-19T11:30:07.973Z,160.00
2023-01-19T11:31:20.044Z,158.67
2023-01-19T11:32:25.118Z,155.50
2023-01-19T11:33:34.375Z,152.50
2023-01-19T11:34:39.239Z,151.50
2023-01-19T11:35:42.814Z,147.83
2023-01-19T11:36:56.312Z,143.17
2023-01-19T11:38:07.135Z,145.50
2023-01-19T11:39:23.701Z,144.00
2023-01-19T11:40:27.321Z,142.83
2023-01-19T11:41:34.664Z,140.83
2023-01-19T11:42:38.405Z,139.50
2023-01-19T11:43:48.993Z,133.83
2023-01-19T11:44:59.970Z,123.67
2023-01-19T11:46:05.109Z,126.00
2023-01-19T11:47:15.281Z,127.17
2023-01-19T11:48:23.554Z,126.17
2023-01-19T11:49:31.242Z,125.00
2023-01-19T11:50:38.320Z,125.00
2023-01-19T11:51:50.501Z,126.00
2023-01-19T11:52:57.211Z,127.00
2023-01-19T11:54:06.921Z,127.00
2023-01-19T11:55:18.346Z,126.17
2023-01-19T11:56:24.752Z,126.33
2023-01-19T11:57:27.573Z,123.50
2023-01-19T11:58:31.442Z,121.67
2023-01-19T11:59:34.866Z,122.00
2023-01-19T12:00:42.538Z,121.17
2023-01-19T12:01:49.242Z,121.00
2023-01-19T12:02:56.023Z,121.00
2023-01-19T12:04:04.526Z,121.50
2023-01-19T12:05:15.822Z,119.50
2023-01-19T12:06:21.991Z,117.33
2023-01-19T12:07:30.222Z,114.00
2023-01-19T12:08:37.035Z,112.00
2023-01-19T12:09:44.183Z,112.00
2023-01-19T12:10:48.273Z,110.33
2023-01-19T12:11:56.072Z,108.67
2023-01-19T12:12:58.896Z,105.67
2023-01-19T12:14:03.432Z,105.33
2023-01-19T12:15:09.979Z,104.50
2023-01-19T12:16:19.647Z,101.00
2023-01-19T12:17:25.904Z,99.00
2023-01-19T12:18:35.035Z,98.33
2023-01-19T12:19:44.174Z,98.00
2023-01-19T12:20:50.109Z,94.17
2023-01-19T12:21:54.596Z,92.83
2023-01-19T12:23:05.494Z,92.00
2023-01-19T12:24:16.317Z,91.17
2023-01-19T12:25:23.306Z,91.17
2023-01-19T12:26:29.464Z,92.17
2023-01-19T12:27:40.861Z,93.00
2023-01-19T12:28:46.948Z,93.00
2023-01-19T12:29:51.046Z,93.00
2023-01-19T12:30:55.194Z,93.00
2023-01-19T12:32:17.163Z,92.50
2023-01-19T12:33:25.253Z,86.33
2023-01-19T12:34:42.210Z,86.00
2023-01-19T12:35:54.196Z,86.67
2023-01-19T12:37:01.660Z,87.00
2023-01-19T12:38:23.430Z,87.00
2023-01-19T12:39:27.106Z,87.00
2023-01-19T12:40:35.180Z,87.00
2023-01-19T12:41:39.799Z,87.00
2023-01-19T12:42:44.677Z,87.17
2023-01-19T12:43:48.781Z,88.17
2023-01-19T12:44:55.852Z,89.17
2023-01-19T12:45:59.527Z,90.33
2023-01-19T12:47:16.886Z,92.00
2023-01-19T12:48:26.188Z,95.17
2023-01-19T12:49:30.775Z,98.50
2023-01-19T12:50:38.430Z,102.00
2023-01-19T12:51:41.718Z,103.00
2023-01-19T12:52:51.746Z,103.00
2023-01-19T12:53:57.059Z,103.00
2023-01-19T12:55:18.278Z,103.00
2023-01-19T12:56:29.280Z,121.83
2023-01-19T12:57:35.292Z,125.50
2023-01-19T12:58:38.767Z,131.83
2023-01-19T12:59:41.275Z,135.00
2023-01-19T13:00:46.192Z,135.00
2023-01-19T13:02:03.521Z,132.17
2023-01-19T13:03:21.915Z,130.50
2023-01-19T13:04:31.885Z,131.00
2023-01-19T13:05:59.164Z,138.00
2023-01-19T13:07:13.689Z,139.33
2023-01-19T13:08:21.774Z,138.50
2023-01-19T13:09:32.018Z,136.17
2023-01-19T13:10:53.866Z,135.33
2023-01-19T13:12:20.621Z,136.17
2023-01-19T13:13:25.972Z,140.50
2023-01-19T13:14:38.091Z,142.00
2023-01-19T13:15:42.622Z,140.67
2023-01-19T13:16:57.638Z,137.50
2023-01-19T13:18:02.463Z,132.67
2023-01-19T13:19:16.301Z,131.17
2023-01-19T13:20:23.875Z,131.00
2023-01-19T13:21:27.744Z,130.83
2023-01-19T13:22:51.724Z,130.00
2023-01-19T13:23:56.343Z,128.67
2023-01-19T13:25:06.767Z,126.67
2023-01-19T13:26:15.844Z,125.17
2023-01-19T13:27:18.397Z,126.00
2023-01-19T13:28:27.591Z,126.00
2023-01-19T13:29:34.366Z,126.00
2023-01-19T13:30:40.316Z,126.00
2023-01-19T13:31:45.841Z,126.33
2023-01-19T13:32:48.633Z,128.50
2023-01-19T13:33:54.102Z,135.33
2023-01-19T13:34:59.237Z,148.00
2023-01-19T13:36:02.839Z,164.00
2023-01-19T13:37:09.283Z,180.33
2023-01-19T13:38:15.318Z,189.50
2023-01-19T13:39:21.741Z,187.00
2023-01-19T13:40:26.400Z,191.33
2023-01-19T13:41:31.235Z,192.17
2023-01-19T13:42:37.271Z,207.33
2023-01-19T13:43:40.897Z,214.50
2023-01-19T13:44:47.207Z,218.00
2023-01-19T13:45:53.489Z,220.00
2023-01-19T13:46:59.739Z,209.17
2023-01-19T13:48:05.460Z,223.33
2023-01-19T13:49:17.067Z,237.00
2023-01-19T13:50:21.307Z,221.00
2023-01-19T13:51:24.765Z,217.33
2023-01-19T13:52:28.249Z,221.67
2023-01-19T13:53:33.263Z,219.17
2023-01-19T13:54:35.691Z,219.83
2023-01-19T13:55:39.134Z,220.00
2023-01-19T13:56:48.012Z,225.17
2023-01-19T13:57:51.302Z,242.33
2023-01-19T13:59:02.359Z,248.33
2023-01-19T14:00:07.092Z,253.67
2023-01-19T14:01:23.632Z,261.17
2023-01-19T14:02:27.497Z,260.83
2023-01-19T14:03:31.089Z,287.83
2023-01-19T14:04:34.965Z,287.00
2023-01-19T14:05:38.493Z,279.00
2023-01-19T14:06:45.853Z,289.17
2023-01-19T14:07:48.475Z,306.67
2023-01-19T14:11:23.796Z,72.33
2023-01-19T14:12:27.201Z,105.83
2023-01-19T14:13:31.747Z,100.83
2023-01-19T14:14:34.519Z,105.83
2023-01-19T14:15:38.575Z,103.50
2023-01-19T14:16:41.075Z,102.67
2023-01-19T14:17:44.467Z,112.33
2023-01-19T14:18:48.190Z,102.50
2023-01-19T14:19:52.953Z,97.67
2023-01-19T14:20:57.194Z,106.00
2023-01-19T14:32:18.013Z,60.67
2023-01-19T14:33:32.937Z,101.33
2023-01-19T14:52:57.711Z,67.83
2023-01-19T14:54:03.849Z,100.67
2023-01-19T14:55:16.639Z,101.17
